sensor_id;sensor_type;location;lat;lon;timestamp;pressure;altitude;pressure_sealevel;temperature;humidity
51439;BME280;38816;51.142;-0.974;2022-11-18T00:00:23;97937.38;;;6.78;100.00
51439;BME280;38816;51.142;-0.974;2022-11-18T00:03:09;97945.06;;;6.75;100.00
51439;BME280;38816;51.142;-0.974;2022-11-18T00:05:55;97951.03;;;6.74;100.00
51439;BME280;38816;51.142;-0.974;2022-11-18T00:08:41;97946.81;;;6.69;100.00
51439;BME280;38816;51.142;-0.974;2022-11-18T00:11:27;97955.34;;;6.62;100.00
51439;BME280;38816;51.142;-0.974;2022-11-18T00:14:21;97963.84;;;6.67;100.00
51439;BME280;38816;51.142;-0.974;2022-11-18T00:17:06;97963.88;;;6.62;100.00
51439;BME280;38816;51.142;-0.974;2022-11-18T00:19:52;97963.00;;;6.60;100.00
51439;BME280;38816;51.142;-0.974;2022-11-18T00:22:37;97970.66;;;6.62;100.00
51439;BME280;38816;51.142;-0.974;2022-11-18T00:25:22;97970.66;;;6.65;100.00
51439;BME280;38816;51.142;-0.974;2022-11-18T00:28:08;97980.88;;;6.62;100.00
51439;BME280;38816;51.142;-0.974;2022-11-18T00:31:02;97983.44;;;6.60;100.00
51439;BME280;38816;51.142;-0.974;2022-11-18T00:33:48;97986.84;;;6.56;100.00
51439;BME280;38816;51.142;-0.974;2022-11-18T00:36:33;97980.06;;;6.52;100.00
51439;BME280;38816;51.142;-0.974;2022-11-18T00:39:19;97986.88;;;6.54;100.00
51439;BME280;38816;51.142;-0.974;2022-11-18T00:42:04;97982.59;;;6.52;100.00
51439;BME280;38816;51.142;-0.974;2022-11-18T00:44:48;97997.09;;;6.47;100.00
51439;BME280;38816;51.142;-0.974;2022-11-18T00:47:33;97999.66;;;6.53;100.00
51439;BME280;38816;51.142;-0.974;2022-11-18T00:50:19;98006.44;;;6.58;100.00
51439;BME280;38816;51.142;-0.974;2022-11-18T00:53:04;98006.44;;;6.51;100.00
51439;BME280;38816;51.142;-0.974;2022-11-18T00:55:50;98012.41;;;6.50;100.00
51439;BME280;38816;51.142;-0.974;2022-11-18T00:58:35;98018.38;;;6.46;100.00
51439;BME280;38816;51.142;-0.974;2022-11-18T01:01:21;98012.41;;;6.47;100.00
51439;BME280;38816;51.142;-0.974;2022-11-18T01:04:06;98013.28;;;6.49;100.00
51439;BME280;38816;51.142;-0.974;2022-11-18T01:06:52;98022.63;;;6.53;100.00
51439;BME280;38816;51.142;-0.974;2022-11-18T01:09:37;98024.31;;;6.49;100.00
51439;BME280;38816;51.142;-0.974;2022-11-18T01:12:22;98029.44;;;6.49;100.00
51439;BME280;38816;51.142;-0.974;2022-11-18T01:15:07;98036.22;;;6.58;100.00
51439;BME280;38816;51.142;-0.974;2022-11-18T01:17:52;98041.31;;;6.58;100.00
51439;BME280;38816;51.142;-0.974;2022-11-18T01:20:37;98040.47;;;6.54;100.00
51439;BME280;38816;51.142;-0.974;2022-11-18T01:23:23;98046.41;;;6.52;100.00
51439;BME280;38816;51.142;-0.974;2022-11-18T01:26:11;98044.72;;;6.51;100.00
51439;BME280;38816;51.142;-0.974;2022-11-18T01:28:56;98043.88;;;6.47;100.00
51439;BME280;38816;51.142;-0.974;2022-11-18T01:31:41;98065.13;;;6.48;100.00
51439;BME280;38816;51.142;-0.974;2022-11-18T01:34:27;98060.03;;;6.51;100.00
51439;BME280;38816;51.142;-0.974;2022-11-18T01:37:13;98071.94;;;6.55;100.00
51439;BME280;38816;51.142;-0.974;2022-11-18T01:39:58;98062.59;;;6.54;100.00
51439;BME280;38816;51.142;-0.974;2022-11-18T01:42:43;98066.00;;;6.54;100.00
51439;BME280;38816;51.142;-0.974;2022-11-18T01:45:38;98066.84;;;6.53;100.00
51439;BME280;38816;51.142;-0.974;2022-11-18T01:48:30;98070.22;;;6.65;100.00
51439;BME280;38816;51.142;-0.974;2022-11-18T01:51:23;98085.53;;;6.57;100.00
51439;BME280;38816;51.142;-0.974;2022-11-18T01:54:16;98080.44;;;6.57;100.00
51439;BME280;38816;51.142;-0.974;2022-11-18T01:57:15;98082.16;;;6.50;100.00
51439;BME280;38816;51.142;-0.974;2022-11-18T02:00:05;98089.81;;;6.47;100.00
51439;BME280;38816;51.142;-0.974;2022-11-18T02:02:50;98100.88;;;6.43;100.00
51439;BME280;38816;51.142;-0.974;2022-11-18T02:05:37;98095.78;;;6.51;100.00
51439;BME280;38816;51.142;-0.974;2022-11-18T02:08:23;98099.19;;;6.57;100.00
51439;BME280;38816;51.142;-0.974;2022-11-18T02:11:12;98101.72;;;6.59;100.00
51439;BME280;38816;51.142;-0.974;2022-11-18T02:13:58;98093.19;;;6.60;100.00
51439;BME280;38816;51.142;-0.974;2022-11-18T02:17:36;98099.16;;;6.51;100.00
51439;BME280;38816;51.142;-0.974;2022-11-18T02:20:32;98105.13;;;6.50;100.00
51439;BME280;38816;51.142;-0.974;2022-11-18T02:23:56;98095.75;;;6.60;100.00
51439;BME280;38816;51.142;-0.974;2022-11-18T02:27:26;98098.28;;;6.66;100.00
51439;BME280;38816;51.142;-0.974;2022-11-18T02:30:17;98100.00;;;6.59;100.00
51439;BME280;38816;51.142;-0.974;2022-11-18T02:33:07;98105.97;;;6.57;100.00
51439;BME280;38816;51.142;-0.974;2022-11-18T02:36:05;98118.75;;;6.51;100.00
51439;BME280;38816;51.142;-0.974;2022-11-18T02:38:56;98125.56;;;6.38;100.00
51439;BME280;38816;51.142;-0.974;2022-11-18T02:41:45;98134.91;;;6.44;100.00
51439;BME280;38816;51.142;-0.974;2022-11-18T02:44:34;98128.16;;;6.30;100.00
51439;BME280;38816;51.142;-0.974;2022-11-18T02:47:23;98139.19;;;6.17;100.00
51439;BME280;38816;51.142;-0.974;2022-11-18T02:50:14;98141.75;;;6.05;100.00
51439;BME280;38816;51.142;-0.974;2022-11-18T02:53:03;98143.41;;;5.94;100.00
51439;BME280;38816;51.142;-0.974;2022-11-18T02:55:51;98148.53;;;5.92;100.00
51439;BME280;38816;51.142;-0.974;2022-11-18T02:58:37;98140.88;;;5.92;100.00
51439;BME280;38816;51.142;-0.974;2022-11-18T03:01:28;98151.03;;;5.89;100.00
51439;BME280;38816;51.142;-0.974;2022-11-18T03:04:15;98154.41;;;5.80;100.00
51439;BME280;38816;51.142;-0.974;2022-11-18T03:09:54;98155.25;;;5.75;100.00
51439;BME280;38816;51.142;-0.974;2022-11-18T03:15:38;98167.13;;;5.71;100.00
51439;BME280;38816;51.142;-0.974;2022-11-18T03:18:34;98169.72;;;5.73;100.00
51439;BME280;38816;51.142;-0.974;2022-11-18T03:21:31;98170.53;;;5.69;100.00
51439;BME280;38816;51.142;-0.974;2022-11-18T03:24:23;98172.22;;;5.71;100.00
51439;BME280;38816;51.142;-0.974;2022-11-18T03:27:19;98179.88;;;5.76;100.00
51439;BME280;38816;51.142;-0.974;2022-11-18T03:30:12;98168.81;;;5.66;100.00
51439;BME280;38816;51.142;-0.974;2022-11-18T03:33:05;98183.28;;;5.70;100.00
51439;BME280;38816;51.142;-0.974;2022-11-18T03:35:52;98187.53;;;5.65;100.00
51439;BME280;38816;51.142;-0.974;2022-11-18T03:38:43;98192.59;;;5.61;100.00
51439;BME280;38816;51.142;-0.974;2022-11-18T03:41:35;98200.25;;;5.61;100.00
51439;BME280;38816;51.142;-0.974;2022-11-18T03:44:28;98201.09;;;5.59;100.00
51439;BME280;38816;51.142;-0.974;2022-11-18T03:47:39;98197.69;;;5.57;100.00
51439;BME280;38816;51.142;-0.974;2022-11-18T03:50:30;98206.19;;;5.59;100.00
51439;BME280;38816;51.142;-0.974;2022-11-18T03:53:18;98210.41;;;5.51;100.00
51439;BME280;38816;51.142;-0.974;2022-11-18T03:56:31;98210.41;;;5.53;100.00
51439;BME280;38816;51.142;-0.974;2022-11-18T03:59:26;98207.03;;;5.49;100.00
51439;BME280;38816;51.142;-0.974;2022-11-18T04:02:16;98223.97;;;5.41;100.00
51439;BME280;38816;51.142;-0.974;2022-11-18T04:05:04;98224.78;;;5.32;100.00
51439;BME280;38816;51.142;-0.974;2022-11-18T04:07:58;98223.06;;;5.28;100.00
51439;BME280;38816;51.142;-0.974;2022-11-18T04:10:48;98232.31;;;5.17;100.00
51439;BME280;38816;51.142;-0.974;2022-11-18T04:13:36;98239.13;;;5.17;100.00
51439;BME280;38816;51.142;-0.974;2022-11-18T04:16:02;98240.81;;;5.15;100.00
51439;BME280;38816;51.142;-0.974;2022-11-18T04:18:47;98250.97;;;5.10;100.00
51439;BME280;38816;51.142;-0.974;2022-11-18T04:21:33;98244.16;;;5.07;100.00
51439;BME280;38816;51.142;-0.974;2022-11-18T04:24:18;98251.75;;;5.03;100.00
51439;BME280;38816;51.142;-0.974;2022-11-18T04:27:04;98244.94;;;4.99;100.00
51439;BME280;38816;51.142;-0.974;2022-11-18T04:29:50;98259.38;;;4.97;100.00
51439;BME280;38816;51.142;-0.974;2022-11-18T04:32:35;98271.16;;;4.86;100.00
51439;BME280;38816;51.142;-0.974;2022-11-18T04:35:21;98272.84;;;4.83;100.00
51439;BME280;38816;51.142;-0.974;2022-11-18T04:38:07;98271.19;;;4.89;100.00
51439;BME280;38816;51.142;-0.974;2022-11-18T04:40:52;98266.94;;;4.91;100.00
51439;BME280;38816;51.142;-0.974;2022-11-18T04:43:37;98276.38;;;5.02;100.00
51439;BME280;38816;51.142;-0.974;2022-11-18T04:46:23;98272.13;;;5.01;100.00
51439;BME280;38816;51.142;-0.974;2022-11-18T04:49:09;98272.13;;;5.03;100.00
51439;BME280;38816;51.142;-0.974;2022-11-18T04:51:56;98283.16;;;5.00;100.00
51439;BME280;38816;51.142;-0.974;2022-11-18T04:54:41;98284.88;;;5.03;100.00
51439;BME280;38816;51.142;-0.974;2022-11-18T04:57:27;98279.78;;;5.03;100.00
51439;BME280;38816;51.142;-0.974;2022-11-18T05:00:12;98284.06;;;5.07;100.00
51439;BME280;38816;51.142;-0.974;2022-11-18T05:02:57;98281.44;;;4.99;100.00
51439;BME280;38816;51.142;-0.974;2022-11-18T05:05:22;98284.00;;;4.98;100.00
51439;BME280;38816;51.142;-0.974;2022-11-18T05:07:47;98285.69;;;4.99;100.00
51439;BME280;38816;51.142;-0.974;2022-11-18T05:10:13;98285.69;;;4.97;100.00
51439;BME280;38816;51.142;-0.974;2022-11-18T05:12:38;98280.56;;;4.93;100.00
51439;BME280;38816;51.142;-0.974;2022-11-18T05:15:13;98296.75;;;5.01;100.00
51439;BME280;38816;51.142;-0.974;2022-11-18T05:17:38;98297.63;;;5.06;100.00
51439;BME280;38816;51.142;-0.974;2022-11-18T05:20:04;98308.75;;;5.20;100.00
51439;BME280;38816;51.142;-0.974;2022-11-18T05:22:29;98298.56;;;5.20;100.00
51439;BME280;38816;51.142;-0.974;2022-11-18T05:24:55;98313.00;;;5.20;100.00
51439;BME280;38816;51.142;-0.974;2022-11-18T05:27:20;98290.91;;;5.14;100.00
51439;BME280;38816;51.142;-0.974;2022-11-18T05:29:46;98301.06;;;5.11;100.00
51439;BME280;38816;51.142;-0.974;2022-11-18T05:32:11;98295.97;;;5.11;100.00
51439;BME280;38816;51.142;-0.974;2022-11-18T05:34:38;98314.69;;;5.16;100.00
51439;BME280;38816;51.142;-0.974;2022-11-18T05:37:04;98320.63;;;5.17;100.00
51439;BME280;38816;51.142;-0.974;2022-11-18T05:39:31;98316.38;;;5.14;100.00
51439;BME280;38816;51.142;-0.974;2022-11-18T05:41:57;98320.56;;;5.07;100.00
51439;BME280;38816;51.142;-0.974;2022-11-18T05:44:41;98331.66;;;5.16;100.00
51439;BME280;38816;51.142;-0.974;2022-11-18T05:47:06;98323.13;;;5.12;100.00
51439;BME280;38816;51.142;-0.974;2022-11-18T05:49:32;98330.78;;;5.11;100.00
51439;BME280;38816;51.142;-0.974;2022-11-18T05:51:57;98329.88;;;5.08;100.00
51439;BME280;38816;51.142;-0.974;2022-11-18T05:54:23;98342.66;;;5.12;100.00
51439;BME280;38816;51.142;-0.974;2022-11-18T05:56:48;98329.06;;;5.10;100.00
51439;BME280;38816;51.142;-0.974;2022-11-18T05:59:14;98331.63;;;5.10;100.00
51439;BME280;38816;51.142;-0.974;2022-11-18T06:01:47;98343.53;;;5.14;100.00
51439;BME280;38816;51.142;-0.974;2022-11-18T06:04:35;98358.75;;;5.06;100.00
51439;BME280;38816;51.142;-0.974;2022-11-18T06:07:54;98351.00;;;4.92;100.00
51439;BME280;38816;51.142;-0.974;2022-11-18T06:10:01;98355.22;;;4.89;100.00
51439;BME280;38816;51.142;-0.974;2022-11-18T06:12:29;98364.53;;;4.87;100.00
51439;BME280;38816;51.142;-0.974;2022-11-18T06:15:43;98374.69;;;4.83;100.00
51439;BME280;38816;51.142;-0.974;2022-11-18T06:18:06;98376.25;;;4.71;100.00
51439;BME280;38816;51.142;-0.974;2022-11-18T06:20:36;98389.88;;;4.74;100.00
51439;BME280;38816;51.142;-0.974;2022-11-18T06:23:02;98383.09;;;4.75;100.00
51439;BME280;38816;51.142;-0.974;2022-11-18T06:25:46;98385.53;;;4.67;100.00
51439;BME280;38816;51.142;-0.974;2022-11-18T06:28:13;98402.50;;;4.68;100.00
51439;BME280;38816;51.142;-0.974;2022-11-18T06:30:39;98393.19;;;4.67;100.00
51439;BME280;38816;51.142;-0.974;2022-11-18T06:33:04;98410.28;;;4.77;100.00
51439;BME280;38816;51.142;-0.974;2022-11-18T06:35:30;98400.91;;;4.73;100.00
51439;BME280;38816;51.142;-0.974;2022-11-18T06:37:55;98417.91;;;4.79;100.00
51439;BME280;38816;51.142;-0.974;2022-11-18T06:40:21;98421.25;;;4.76;100.00
51439;BME280;38816;51.142;-0.974;2022-11-18T06:42:46;98431.44;;;4.75;100.00
51439;BME280;38816;51.142;-0.974;2022-11-18T06:45:30;98435.69;;;4.73;100.00
51439;BME280;38816;51.142;-0.974;2022-11-18T06:47:59;98431.44;;;4.73;100.00
51439;BME280;38816;51.142;-0.974;2022-11-18T06:50:25;98438.28;;;4.79;100.00
51439;BME280;38816;51.142;-0.974;2022-11-18T06:52:51;98440.81;;;4.77;100.00
51439;BME280;38816;51.142;-0.974;2022-11-18T06:55:17;98456.94;;;4.79;100.00
51439;BME280;38816;51.142;-0.974;2022-11-18T06:57:42;98449.16;;;4.67;100.00
51439;BME280;38816;51.142;-0.974;2022-11-18T07:00:08;98463.69;;;4.73;100.00
51439;BME280;38816;51.142;-0.974;2022-11-18T07:02:36;98472.22;;;4.79;100.00
51439;BME280;38816;51.142;-0.974;2022-11-18T07:05:02;98470.53;;;4.78;100.00
51439;BME280;38816;51.142;-0.974;2022-11-18T07:07:28;98480.69;;;4.78;100.00
51439;BME280;38816;51.142;-0.974;2022-11-18T07:09:53;98482.34;;;4.73;100.00
51439;BME280;38816;51.142;-0.974;2022-11-18T07:12:19;98486.53;;;4.71;100.00
51439;BME280;38816;51.142;-0.974;2022-11-18T07:14:44;98483.03;;;4.62;100.00
51439;BME280;38816;51.142;-0.974;2022-11-18T07:17:10;98490.72;;;4.65;100.00
51439;BME280;38816;51.142;-0.974;2022-11-18T07:19:35;98502.66;;;4.70;100.00
51439;BME280;38816;51.142;-0.974;2022-11-18T07:22:01;98502.63;;;4.67;100.00
51439;BME280;38816;51.142;-0.974;2022-11-18T07:24:26;98511.09;;;4.68;100.00
51439;BME280;38816;51.142;-0.974;2022-11-18T07:26:52;98506.84;;;4.65;100.00
51439;BME280;38816;51.142;-0.974;2022-11-18T07:29:18;98505.16;;;4.67;100.00
51439;BME280;38816;51.142;-0.974;2022-11-18T07:31:43;98524.72;;;4.71;100.00
51439;BME280;38816;51.142;-0.974;2022-11-18T07:34:09;98519.53;;;4.64;100.00
51439;BME280;38816;51.142;-0.974;2022-11-18T07:36:34;98529.75;;;4.67;100.00
51439;BME280;38816;51.142;-0.974;2022-11-18T07:39:00;98541.69;;;4.71;100.00
51439;BME280;38816;51.142;-0.974;2022-11-18T07:41:28;98546.84;;;4.75;100.00
51439;BME280;38816;51.142;-0.974;2022-11-18T07:43:55;98550.28;;;4.77;100.00
51439;BME280;38816;51.142;-0.974;2022-11-18T07:46:22;98555.38;;;4.80;100.00
51439;BME280;38816;51.142;-0.974;2022-11-18T07:48:49;98552.81;;;4.77;100.00
51439;BME280;38816;51.142;-0.974;2022-11-18T07:51:17;98554.59;;;4.86;100.00
51439;BME280;38816;51.142;-0.974;2022-11-18T07:53:43;98558.88;;;4.90;100.00
51439;BME280;38816;51.142;-0.974;2022-11-18T07:56:09;98571.72;;;4.99;100.00
51439;BME280;38816;51.142;-0.974;2022-11-18T07:58:35;98576.88;;;5.02;100.00
51439;BME280;38816;51.142;-0.974;2022-11-18T08:01:24;98580.31;;;5.04;100.00
51439;BME280;38816;51.142;-0.974;2022-11-18T08:03:53;98577.59;;;4.94;100.00
51439;BME280;38816;51.142;-0.974;2022-11-18T08:06:18;98590.28;;;4.91;100.00
51439;BME280;38816;51.142;-0.974;2022-11-18T08:08:44;98592.13;;;5.02;100.00
51439;BME280;38816;51.142;-0.974;2022-11-18T08:11:12;98598.19;;;5.12;100.00
51439;BME280;38816;51.142;-0.974;2022-11-18T08:13:37;98587.94;;;5.06;100.00
51439;BME280;38816;51.142;-0.974;2022-11-18T08:16:03;98601.59;;;5.13;100.00
51439;BME280;38816;51.142;-0.974;2022-11-18T08:18:31;98600.78;;;5.15;100.00
51439;BME280;38816;51.142;-0.974;2022-11-18T08:21:01;98611.88;;;5.19;100.00
51439;BME280;38816;51.142;-0.974;2022-11-18T08:23:27;98609.28;;;5.17;100.00
51439;BME280;38816;51.142;-0.974;2022-11-18T08:25:59;98613.66;;;5.27;100.00
51439;BME280;38816;51.142;-0.974;2022-11-18T08:28:25;98608.53;;;5.26;100.00
51439;BME280;38816;51.142;-0.974;2022-11-18T08:30:50;98608.63;;;5.32;100.00
51439;BME280;38816;51.142;-0.974;2022-11-18T08:33:16;98617.97;;;5.31;100.00
51439;BME280;38816;51.142;-0.974;2022-11-18T08:35:41;98619.63;;;5.31;100.00
51439;BME280;38816;51.142;-0.974;2022-11-18T08:38:06;98617.13;;;5.32;100.00
51439;BME280;38816;51.142;-0.974;2022-11-18T08:40:32;98624.06;;;5.46;100.00
51439;BME280;38816;51.142;-0.974;2022-11-18T08:42:58;98626.66;;;5.50;100.00
51439;BME280;38816;51.142;-0.974;2022-11-18T08:45:23;98616.41;;;5.47;100.00
51439;BME280;38816;51.142;-0.974;2022-11-18T08:47:48;98644.66;;;5.64;100.00
51439;BME280;38816;51.142;-0.974;2022-11-18T08:50:14;98634.44;;;5.64;100.00
51439;BME280;38816;51.142;-0.974;2022-11-18T08:52:39;98641.34;;;5.74;100.00
51439;BME280;38816;51.142;-0.974;2022-11-18T08:55:05;98646.53;;;5.83;100.00
51439;BME280;38816;51.142;-0.974;2022-11-18T08:57:30;98666.97;;;5.90;100.00
51439;BME280;38816;51.142;-0.974;2022-11-18T08:59:56;98658.47;;;5.88;100.00
51439;BME280;38816;51.142;-0.974;2022-11-18T09:02:22;98652.53;;;5.87;100.00
51439;BME280;38816;51.142;-0.974;2022-11-18T09:04:51;98665.38;;;5.96;100.00
51439;BME280;38816;51.142;-0.974;2022-11-18T09:07:18;98665.44;;;6.01;100.00
51439;BME280;38816;51.142;-0.974;2022-11-18T09:09:44;98674.88;;;6.08;100.00
51439;BME280;38816;51.142;-0.974;2022-11-18T09:12:09;98672.34;;;6.16;100.00
51439;BME280;38816;51.142;-0.974;2022-11-18T09:14:43;98657.91;;;6.16;100.00
51439;BME280;38816;51.142;-0.974;2022-11-18T09:17:09;98675.06;;;6.31;100.00
51439;BME280;38816;51.142;-0.974;2022-11-18T09:19:35;98678.44;;;6.30;100.00
51439;BME280;38816;51.142;-0.974;2022-11-18T09:22:01;98686.97;;;6.30;100.00
51439;BME280;38816;51.142;-0.974;2022-11-18T09:24:26;98692.13;;;6.40;100.00
51439;BME280;38816;51.142;-0.974;2022-11-18T09:26:52;98691.34;;;6.47;100.00
51439;BME280;38816;51.142;-0.974;2022-11-18T09:29:18;98709.19;;;6.47;100.00
51439;BME280;38816;51.142;-0.974;2022-11-18T09:31:44;98699.00;;;6.45;100.00
51439;BME280;38816;51.142;-0.974;2022-11-18T09:34:10;98702.53;;;6.66;100.00
51439;BME280;38816;51.142;-0.974;2022-11-18T09:36:35;98697.41;;;6.66;100.00
51439;BME280;38816;51.142;-0.974;2022-11-18T09:39:00;98717.06;;;6.71;100.00
51439;BME280;38816;51.142;-0.974;2022-11-18T09:47:32;98728.31;;;6.99;100.00
51439;BME280;38816;51.142;-0.974;2022-11-18T09:50:09;98731.00;;;7.22;100.00
51439;BME280;38816;51.142;-0.974;2022-11-18T09:52:43;98732.72;;;7.26;100.00
51439;BME280;38816;51.142;-0.974;2022-11-18T09:55:13;98725.06;;;7.29;100.00
51439;BME280;38816;51.142;-0.974;2022-11-18T09:57:47;98720.84;;;7.38;100.00
51439;BME280;38816;51.142;-0.974;2022-11-18T10:00:18;98720.06;;;7.48;100.00
51439;BME280;38816;51.142;-0.974;2022-11-18T10:05:22;98738.84;;;7.64;100.00
51439;BME280;38816;51.142;-0.974;2022-11-18T10:10:48;98749.09;;;7.65;100.00
51439;BME280;38816;51.142;-0.974;2022-11-18T10:18:52;98758.47;;;7.69;100.00
51439;BME280;38816;51.142;-0.974;2022-11-18T10:21:36;98757.69;;;7.82;100.00
51439;BME280;38816;51.142;-0.974;2022-11-18T10:24:15;98761.09;;;7.81;100.00
51439;BME280;38816;51.142;-0.974;2022-11-18T10:26:42;98770.53;;;7.95;100.00
51439;BME280;38816;51.142;-0.974;2022-11-18T10:29:08;98773.97;;;8.03;100.00
51439;BME280;38816;51.142;-0.974;2022-11-18T10:31:38;98767.16;;;8.08;100.00
51439;BME280;38816;51.142;-0.974;2022-11-18T10:34:04;98785.09;;;8.17;100.00
51439;BME280;38816;51.142;-0.974;2022-11-18T10:36:31;98785.94;;;8.13;100.00
51439;BME280;38816;51.142;-0.974;2022-11-18T10:41:42;98776.53;;;8.03;100.00
51439;BME280;38816;51.142;-0.974;2022-11-18T10:44:32;98785.94;;;8.11;100.00
51439;BME280;38816;51.142;-0.974;2022-11-18T10:49:49;98784.25;;;8.15;100.00
51439;BME280;38816;51.142;-0.974;2022-11-18T10:52:15;98785.13;;;8.26;100.00
51439;BME280;38816;51.142;-0.974;2022-11-18T10:54:41;98781.72;;;8.30;100.00
51439;BME280;38816;51.142;-0.974;2022-11-18T10:59:47;98785.13;;;8.29;100.00
51439;BME280;38816;51.142;-0.974;2022-11-18T11:04:48;98797.13;;;8.46;100.00
51439;BME280;38816;51.142;-0.974;2022-11-18T11:07:28;98804.84;;;8.62;100.00
51439;BME280;38816;51.142;-0.974;2022-11-18T11:12:59;98791.16;;;8.59;100.00
51439;BME280;38816;51.142;-0.974;2022-11-18T11:15:38;98799.72;;;8.66;100.00
51439;BME280;38816;51.142;-0.974;2022-11-18T11:18:11;98787.75;;;8.54;100.00
51439;BME280;38816;51.142;-0.974;2022-11-18T11:20:55;98798.84;;;8.63;100.00
51439;BME280;38816;51.142;-0.974;2022-11-18T11:23:22;98807.41;;;8.72;100.00
51439;BME280;38816;51.142;-0.974;2022-11-18T11:26:04;98797.16;;;8.73;100.00
51439;BME280;38816;51.142;-0.974;2022-11-18T11:28:45;98816.81;;;8.99;100.00
51439;BME280;38816;51.142;-0.974;2022-11-18T11:31:46;98814.25;;;8.93;100.00
51439;BME280;38816;51.142;-0.974;2022-11-18T11:42:56;98833.03;;;8.98;100.00
51439;BME280;38816;51.142;-0.974;2022-11-18T11:45:43;98813.41;;;8.83;100.00
51439;BME280;38816;51.142;-0.974;2022-11-18T11:48:27;98837.31;;;9.03;100.00
51439;BME280;38816;51.142;-0.974;2022-11-18T11:56:54;98839.84;;;9.31;100.00
51439;BME280;38816;51.142;-0.974;2022-11-18T12:04:50;98839.84;;;9.55;100.00
51439;BME280;38816;51.142;-0.974;2022-11-18T12:07:28;98844.94;;;9.60;100.00
51439;BME280;38816;51.142;-0.974;2022-11-18T12:15:53;98847.41;;;9.94;100.00
51439;BME280;38816;51.142;-0.974;2022-11-18T12:18:39;98842.25;;;10.04;100.00
51439;BME280;38816;51.142;-0.974;2022-11-18T12:21:06;98832.84;;;10.05;100.00
51439;BME280;38816;51.142;-0.974;2022-11-18T12:23:32;98831.94;;;10.18;100.00
51439;BME280;38816;51.142;-0.974;2022-11-18T12:26:06;98850.72;;;10.22;100.00
51439;BME280;38816;51.142;-0.974;2022-11-18T12:33:48;98855.91;;;10.14;98.28
51439;BME280;38816;51.142;-0.974;2022-11-18T12:36:29;98866.22;;;10.00;100.00
51439;BME280;38816;51.142;-0.974;2022-11-18T12:38:56;98862.81;;;9.86;100.00
51439;BME280;38816;51.142;-0.974;2022-11-18T12:44:26;98856.03;;;9.77;100.00
51439;BME280;38816;51.142;-0.974;2022-11-18T12:47:02;98868.72;;;10.23;98.67
51439;BME280;38816;51.142;-0.974;2022-11-18T12:52:00;98863.41;;;10.57;93.56
51439;BME280;38816;51.142;-0.974;2022-11-18T12:54:30;98889.06;;;10.69;91.50
51439;BME280;38816;51.142;-0.974;2022-11-18T12:57:00;98877.09;;;10.60;90.15
51439;BME280;38816;51.142;-0.974;2022-11-18T12:59:28;98891.69;;;10.58;90.73
51439;BME280;38816;51.142;-0.974;2022-11-18T13:04:35;98880.56;;;10.52;89.54
51439;BME280;38816;51.142;-0.974;2022-11-18T13:07:01;98888.28;;;10.55;88.05
51439;BME280;38816;51.142;-0.974;2022-11-18T13:09:33;98889.97;;;10.56;88.12
51439;BME280;38816;51.142;-0.974;2022-11-18T13:12:03;98898.53;;;10.58;87.30
51439;BME280;38816;51.142;-0.974;2022-11-18T13:14:30;98906.22;;;10.62;86.03
51439;BME280;38816;51.142;-0.974;2022-11-18T13:17:36;98887.47;;;10.44;86.91
51439;BME280;38816;51.142;-0.974;2022-11-18T13:20:36;98893.50;;;10.36;88.94
51439;BME280;38816;51.142;-0.974;2022-11-18T13:25:53;98908.06;;;10.37;89.72
51439;BME280;38816;51.142;-0.974;2022-11-18T13:31:25;98913.22;;;10.30;89.05
51439;BME280;38816;51.142;-0.974;2022-11-18T13:33:53;98911.53;;;10.18;91.47
51439;BME280;38816;51.142;-0.974;2022-11-18T13:36:20;98921.78;;;10.21;92.97
51439;BME280;38816;51.142;-0.974;2022-11-18T13:39:04;98922.63;;;10.20;91.65
51439;BME280;38816;51.142;-0.974;2022-11-18T13:41:33;98919.22;;;10.17;91.16
51439;BME280;38816;51.142;-0.974;2022-11-18T13:44:18;98917.56;;;10.05;91.61
51439;BME280;38816;51.142;-0.974;2022-11-18T13:46:53;98924.41;;;10.09;91.05
51439;BME280;38816;51.142;-0.974;2022-11-18T13:49:32;98935.53;;;10.06;91.88
51439;BME280;38816;51.142;-0.974;2022-11-18T13:52:01;98929.53;;;10.03;92.58
51439;BME280;38816;51.142;-0.974;2022-11-18T13:54:27;98933.81;;;10.05;91.93
51439;BME280;38816;51.142;-0.974;2022-11-18T13:56:53;98944.94;;;10.06;93.01
51439;BME280;38816;51.142;-0.974;2022-11-18T13:59:21;98941.50;;;10.07;91.77
51439;BME280;38816;51.142;-0.974;2022-11-18T14:01:55;98938.94;;;10.04;92.46
51439;BME280;38816;51.142;-0.974;2022-11-18T14:04:26;98927.00;;;9.87;92.96
51439;BME280;38816;51.142;-0.974;2022-11-18T14:06:52;98927.88;;;9.83;93.16
51439;BME280;38816;51.142;-0.974;2022-11-18T14:09:30;98940.69;;;9.83;94.20
51439;BME280;38816;51.142;-0.974;2022-11-18T14:14:31;98940.69;;;9.76;95.64
51439;BME280;38816;51.142;-0.974;2022-11-18T14:17:22;98952.69;;;9.78;96.19
51439;BME280;38816;51.142;-0.974;2022-11-18T14:19:53;98944.97;;;9.68;96.68
51439;BME280;38816;51.142;-0.974;2022-11-18T14:22:21;98951.00;;;9.73;97.15
51439;BME280;38816;51.142;-0.974;2022-11-18T14:25:17;98966.38;;;9.77;96.82
51439;BME280;38816;51.142;-0.974;2022-11-18T14:27:46;98967.25;;;9.78;96.42
51439;BME280;38816;51.142;-0.974;2022-11-18T14:30:35;98974.09;;;9.77;96.82
51439;BME280;38816;51.142;-0.974;2022-11-18T14:35:28;98961.25;;;9.68;96.56
51439;BME280;38816;51.142;-0.974;2022-11-18T14:37:54;98977.50;;;9.73;96.86
51439;BME280;38816;51.142;-0.974;2022-11-18T14:40:19;98975.78;;;9.66;97.54
51439;BME280;38816;51.142;-0.974;2022-11-18T14:42:45;98976.66;;;9.60;98.51
51439;BME280;38816;51.142;-0.974;2022-11-18T14:45:10;98988.59;;;9.63;99.27
51439;BME280;38816;51.142;-0.974;2022-11-18T14:47:36;98982.66;;;9.69;99.42
51439;BME280;38816;51.142;-0.974;2022-11-18T14:50:01;98991.19;;;9.69;99.17
51439;BME280;38816;51.142;-0.974;2022-11-18T14:52:26;98992.88;;;9.72;99.08
51439;BME280;38816;51.142;-0.974;2022-11-18T14:54:52;98986.91;;;9.65;99.88
51439;BME280;38816;51.142;-0.974;2022-11-18T14:57:17;99003.16;;;9.73;99.38
51439;BME280;38816;51.142;-0.974;2022-11-18T14:59:43;98999.75;;;9.70;99.69
51439;BME280;38816;51.142;-0.974;2022-11-18T15:02:14;98992.03;;;9.60;100.00
51439;BME280;38816;51.142;-0.974;2022-11-18T15:04:40;99015.13;;;9.65;100.00